PWSweather.com
Personal Weather Stations
Station Observations
BULSHOEK
ClanwilliamZA

ClanwilliamZA

Lat: -32.003, Lon: 18.782

Elevation: 213

Station Type: Davis Vantage Pro

High Low Average
Temperature 71.1°F21.7°C 53.8°F12.1°C 61.7°F16.5°C
Dew Point 63.0°F17.2°C 51.2°F10.7°C 57.7°F14.3°C
Winds 2.3 mph 3.7 kmh Calm Calm 1.0 mph WNW1.6 kmh WNW
Wind Gusts 10.0 mph16.1 kmh -- 4.0 mph6.4 kmh
Humidity 92% 70% 87%
Pressure 30.14 in1020.7 mb 30.03 in1016.9 mb -
Precipitation 0.25 in6.4 mm - -
Hour Temp Dew Point Humidity Winds Wind Gusts Pressure Precip Precip Rate Daily Precip Total
12:00 AM 61.3°F16.3°C 57.7°F14.3°C 88% 0.4 mph N0.6 kmh N 5.0 mph8.0 kmh 30.03 in1016.9 mb 0.00 in0.0 mm 0.00 in0.0 mm 0.00 in0.0 mm
12:05 AM 61.3°F16.3°C 57.4°F14.1°C 87% 0.8 mph N1.3 kmh N 7.0 mph11.3 kmh 30.03 in1016.9 mb 0.00 in0.0 mm 0.00 in0.0 mm 0.00 in0.0 mm
12:10 AM 61.3°F16.3°C 57.4°F14.1°C 87% 0.7 mph N1.1 kmh N 7.0 mph11.3 kmh 30.03 in1016.9 mb 0.00 in0.0 mm 0.00 in0.0 mm 0.00 in0.0 mm
12:15 AM 61.3°F16.3°C 57.4°F14.1°C 87% 0.2 mph NNW0.3 kmh NNW 5.0 mph8.0 kmh 30.04 in1017.3 mb 0.00 in0.0 mm 0.00 in0.0 mm 0.00 in0.0 mm
12:20 AM 61.3°F16.3°C 57.4°F14.1°C 87% 0.1 mph N0.2 kmh N 5.0 mph8.0 kmh 30.04 in1017.3 mb 0.00 in0.0 mm 0.00 in0.0 mm 0.00 in0.0 mm
12:25 AM 61.3°F16.3°C 57.7°F14.3°C 88% 2.1 mph N3.4 kmh N 6.0 mph9.7 kmh 30.04 in1017.3 mb 0.00 in0.0 mm 0.00 in0.0 mm 0.00 in0.0 mm
12:30 AM 61.3°F16.3°C 57.7°F14.3°C 88% 1.3 mph N2.1 kmh N 6.0 mph9.7 kmh 30.04 in1017.3 mb 0.00 in0.0 mm 0.00 in0.0 mm 0.00 in0.0 mm
12:35 AM 61.3°F16.3°C 57.7°F14.3°C 88% 0.3 mph NNW0.5 kmh NNW 6.0 mph9.7 kmh 30.04 in1017.3 mb 0.00 in0.0 mm 0.00 in0.0 mm 0.00 in0.0 mm
12:40 AM 61.3°F16.3°C 57.7°F14.3°C 88% 1.3 mph N2.1 kmh N 6.0 mph9.7 kmh 30.04 in1017.3 mb 0.00 in0.0 mm 0.00 in0.0 mm 0.00 in0.0 mm
12:45 AM 61.3°F16.3°C 57.7°F14.3°C 88% 0.6 mph NNW1.0 kmh NNW 6.0 mph9.7 kmh 30.04 in1017.3 mb 0.00 in0.0 mm 0.00 in0.0 mm 0.00 in0.0 mm
12:50 AM 61.3°F16.3°C 57.7°F14.3°C 88% 0.2 mph N0.3 kmh N 5.0 mph8.0 kmh 30.04 in1017.3 mb 0.00 in0.0 mm 0.00 in0.0 mm 0.00 in0.0 mm
12:55 AM 61.3°F16.3°C 57.7°F14.3°C 88% 0.6 mph NNW1.0 kmh NNW 5.0 mph8.0 kmh 30.04 in1017.3 mb 0.00 in0.0 mm 0.00 in0.0 mm 0.00 in0.0 mm
01:00 AM 61.3°F16.3°C 57.7°F14.3°C 88% 0.5 mph N0.8 kmh N 5.0 mph8.0 kmh 30.04 in1017.3 mb 0.00 in0.0 mm 0.00 in0.0 mm 0.00 in0.0 mm
01:05 AM 61.2°F16.2°C 57.6°F14.2°C 88% 1.5 mph NW2.4 kmh NW 6.0 mph9.7 kmh 30.04 in1017.3 mb 0.00 in0.0 mm 0.00 in0.0 mm 0.00 in0.0 mm
01:10 AM 60.9°F16.1°C 57.3°F14.1°C 88% 1.1 mph NNW1.8 kmh NNW 6.0 mph9.7 kmh 30.04 in1017.3 mb 0.00 in0.0 mm 0.00 in0.0 mm 0.00 in0.0 mm
01:15 AM 60.8°F16.0°C 57.2°F14.0°C 88% 0.3 mph NNW0.5 kmh NNW 4.0 mph6.4 kmh 30.04 in1017.3 mb 0.00 in0.0 mm 0.00 in0.0 mm 0.00 in0.0 mm
01:20 AM 60.6°F15.9°C 57.0°F13.9°C 88% 1.2 mph N1.9 kmh N 6.0 mph9.7 kmh 30.04 in1017.3 mb 0.00 in0.0 mm 0.00 in0.0 mm 0.00 in0.0 mm
01:25 AM 60.5°F15.8°C 56.9°F13.8°C 88% 1.4 mph NNW2.3 kmh NNW 7.0 mph11.3 kmh 30.04 in1017.3 mb 0.00 in0.0 mm 0.00 in0.0 mm 0.00 in0.0 mm
01:30 AM 60.5°F15.8°C 56.9°F13.8°C 88% 0.5 mph N0.8 kmh N 7.0 mph11.3 kmh 30.04 in1017.3 mb 0.00 in0.0 mm 0.00 in0.0 mm 0.00 in0.0 mm
01:35 AM 60.7°F15.9°C 57.1°F13.9°C 88% 1.3 mph NW2.1 kmh NW 5.0 mph8.0 kmh 30.04 in1017.3 mb 0.00 in0.0 mm 0.00 in0.0 mm 0.00 in0.0 mm
01:40 AM 60.8°F16.0°C 57.2°F14.0°C 88% 0.5 mph NW0.8 kmh NW 5.0 mph8.0 kmh 30.04 in1017.3 mb 0.00 in0.0 mm 0.00 in0.0 mm 0.00 in0.0 mm
01:45 AM 60.8°F16.0°C 57.2°F14.0°C 88% 1.3 mph NNW2.1 kmh NNW 7.0 mph11.3 kmh 30.04 in1017.3 mb 0.00 in0.0 mm 0.00 in0.0 mm 0.00 in0.0 mm
01:50 AM 60.6°F15.9°C 57.0°F13.9°C 88% 1.3 mph NW2.1 kmh NW 7.0 mph11.3 kmh 30.04 in1017.3 mb 0.00 in0.0 mm 0.00 in0.0 mm 0.00 in0.0 mm
01:55 AM 60.6°F15.9°C 57.0°F13.9°C 88% 0.6 mph NW1.0 kmh NW 6.0 mph9.7 kmh 30.04 in1017.3 mb 0.00 in0.0 mm 0.00 in0.0 mm 0.00 in0.0 mm
02:00 AM 60.6°F15.9°C 57.3°F14.1°C 89% 0.8 mph N1.3 kmh N 5.0 mph8.0 kmh 30.05 in1017.6 mb 0.00 in0.0 mm 0.00 in0.0 mm 0.00 in0.0 mm
02:05 AM 60.5°F15.8°C 57.2°F14.0°C 89% 1.3 mph NNW2.1 kmh NNW 9.0 mph14.5 kmh 30.05 in1017.6 mb 0.00 in0.0 mm 0.00 in0.0 mm 0.00 in0.0 mm
02:10 AM 60.5°F15.8°C 57.2°F14.0°C 89% 0.7 mph N1.1 kmh N 9.0 mph14.5 kmh 30.05 in1017.6 mb 0.00 in0.0 mm 0.00 in0.0 mm 0.00 in0.0 mm
02:15 AM 60.4°F15.8°C 57.1°F13.9°C 89% 1.3 mph N2.1 kmh N 8.0 mph12.9 kmh 30.05 in1017.6 mb 0.00 in0.0 mm 0.00 in0.0 mm 0.00 in0.0 mm
02:20 AM 60.3°F15.7°C 57.0°F13.9°C 89% 1.3 mph N2.1 kmh N 7.0 mph11.3 kmh 30.05 in1017.6 mb 0.00 in0.0 mm 0.00 in0.0 mm 0.00 in0.0 mm
02:25 AM 60.1°F15.6°C 56.8°F13.8°C 89% 1.8 mph N2.9 kmh N 7.0 mph11.3 kmh 30.05 in1017.6 mb 0.00 in0.0 mm 0.00 in0.0 mm 0.00 in0.0 mm
02:30 AM 60.0°F15.6°C 56.7°F13.7°C 89% 1.0 mph NNW1.6 kmh NNW 7.0 mph11.3 kmh 30.05 in1017.6 mb 0.00 in0.0 mm 0.00 in0.0 mm 0.00 in0.0 mm
02:35 AM 59.9°F15.5°C 57.0°F13.9°C 90% 1.0 mph N1.6 kmh N 8.0 mph12.9 kmh 30.05 in1017.6 mb 0.00 in0.0 mm 0.00 in0.0 mm 0.00 in0.0 mm
02:40 AM 59.8°F15.4°C 56.9°F13.8°C 90% 1.2 mph N1.9 kmh N 8.0 mph12.9 kmh 30.05 in1017.6 mb 0.00 in0.0 mm 0.00 in0.0 mm 0.00 in0.0 mm
02:45 AM 59.7°F15.4°C 56.8°F13.8°C 90% 0.6 mph N1.0 kmh N 8.0 mph12.9 kmh 30.05 in1017.6 mb 0.00 in0.0 mm 0.00 in0.0 mm 0.00 in0.0 mm
02:50 AM 59.7°F15.4°C 57.4°F14.1°C 92% 1.9 mph N3.1 kmh N 9.0 mph14.5 kmh 30.05 in1017.6 mb 0.00 in0.0 mm 0.00 in0.0 mm 0.00 in0.0 mm
02:55 AM 59.8°F15.4°C 56.9°F13.8°C 90% 1.7 mph N2.7 kmh N 10.0 mph16.1 kmh 30.05 in1017.6 mb 0.00 in0.0 mm 0.00 in0.0 mm 0.00 in0.0 mm
03:00 AM 59.8°F15.4°C 56.9°F13.8°C 90% 1.6 mph NNW2.6 kmh NNW 10.0 mph16.1 kmh 30.05 in1017.6 mb 0.00 in0.0 mm 0.00 in0.0 mm 0.00 in0.0 mm
03:05 AM 59.8°F15.4°C 56.9°F13.8°C 90% 2.3 mph N3.7 kmh N 9.0 mph14.5 kmh 30.05 in1017.6 mb 0.00 in0.0 mm 0.00 in0.0 mm 0.00 in0.0 mm
03:10 AM 59.9°F15.5°C 57.0°F13.9°C 90% 1.6 mph N2.6 kmh N 9.0 mph14.5 kmh 30.05 in1017.6 mb 0.00 in0.0 mm 0.00 in0.0 mm 0.00 in0.0 mm
03:15 AM 59.9°F15.5°C 57.0°F13.9°C 90% 0.3 mph WNW0.5 kmh WNW 7.0 mph11.3 kmh 30.05 in1017.6 mb 0.01 in0.3 mm 0.12 in3.0 mm 0.01 in0.3 mm
03:20 AM 59.9°F15.5°C 57.0°F13.9°C 90% 0.1 mph W0.2 kmh W 3.0 mph4.8 kmh 30.05 in1017.6 mb 0.01 in0.3 mm 0.00 in0.0 mm 0.01 in0.3 mm
03:25 AM 59.8°F15.4°C 56.9°F13.8°C 90% Calm Calm 3.0 mph4.8 kmh 30.05 in1017.6 mb 0.01 in0.3 mm 0.00 in0.0 mm 0.01 in0.3 mm
03:30 AM 59.8°F15.4°C 56.9°F13.8°C 90% 0.3 mph N0.5 kmh N 4.0 mph6.4 kmh 30.05 in1017.6 mb 0.02 in0.5 mm 0.12 in3.0 mm 0.02 in0.5 mm
03:35 AM 59.8°F15.4°C 57.2°F14.0°C 91% Calm Calm 4.0 mph6.4 kmh 30.05 in1017.6 mb 0.02 in0.5 mm 0.00 in0.0 mm 0.02 in0.5 mm
03:40 AM 59.9°F15.5°C 57.3°F14.1°C 91% 0.1 mph N0.2 kmh N 2.0 mph3.2 kmh 30.05 in1017.6 mb 0.02 in0.5 mm 0.00 in0.0 mm 0.02 in0.5 mm
03:45 AM 59.9°F15.5°C 57.0°F13.9°C 90% 1.0 mph NNW1.6 kmh NNW 6.0 mph9.7 kmh 30.05 in1017.6 mb 0.02 in0.5 mm 0.00 in0.0 mm 0.02 in0.5 mm
03:50 AM 59.8°F15.4°C 57.2°F14.0°C 91% 0.5 mph N0.8 kmh N 6.0 mph9.7 kmh 30.05 in1017.6 mb 0.02 in0.5 mm 0.00 in0.0 mm 0.02 in0.5 mm
03:55 AM 59.9°F15.5°C 57.3°F14.1°C 91% 0.1 mph NNW0.2 kmh NNW 5.0 mph8.0 kmh 30.05 in1017.6 mb 0.03 in0.8 mm 0.12 in3.0 mm 0.03 in0.8 mm
04:00 AM 59.9°F15.5°C 57.3°F14.1°C 91% 1.5 mph N2.4 kmh N 9.0 mph14.5 kmh 30.04 in1017.3 mb 0.03 in0.8 mm 0.00 in0.0 mm 0.03 in0.8 mm
04:10 AM 59.9°F15.5°C 57.3°F14.1°C 91% 0.4 mph N0.6 kmh N 4.0 mph6.4 kmh 30.04 in1017.3 mb 0.04 in1.0 mm 0.06 in1.5 mm 0.04 in1.0 mm
04:15 AM 59.9°F15.5°C 57.3°F14.1°C 91% 0.1 mph N0.2 kmh N 4.0 mph6.4 kmh 30.05 in1017.6 mb 0.04 in1.0 mm 0.00 in0.0 mm 0.05 in1.3 mm
04:20 AM 59.9°F15.5°C 57.3°F14.1°C 91% 1.0 mph N1.6 kmh N 6.0 mph9.7 kmh 30.05 in1017.6 mb 0.04 in1.0 mm 0.00 in0.0 mm 0.05 in1.3 mm
04:25 AM 59.9°F15.5°C 57.3°F14.1°C 91% 0.5 mph NW0.8 kmh NW 6.0 mph9.7 kmh 30.05 in1017.6 mb 0.04 in1.0 mm 0.00 in0.0 mm 0.05 in1.3 mm
04:30 AM 59.9°F15.5°C 57.3°F14.1°C 91% 1.2 mph N1.9 kmh N 7.0 mph11.3 kmh 30.04 in1017.3 mb 0.04 in1.0 mm 0.00 in0.0 mm 0.06 in1.5 mm
04:35 AM 59.9°F15.5°C 57.3°F14.1°C 91% 0.8 mph N1.3 kmh N 7.0 mph11.3 kmh 30.04 in1017.3 mb 0.05 in1.3 mm 0.12 in3.0 mm 0.06 in1.5 mm
04:40 AM 60.0°F15.6°C 57.4°F14.1°C 91% 0.5 mph N0.8 kmh N 5.0 mph8.0 kmh 30.04 in1017.3 mb 0.06 in1.5 mm 0.12 in3.0 mm 0.07 in1.8 mm
04:45 AM 60.0°F15.6°C 57.4°F14.1°C 91% 1.5 mph N2.4 kmh N 6.0 mph9.7 kmh 30.04 in1017.3 mb 0.06 in1.5 mm 0.00 in0.0 mm 0.08 in2.0 mm
04:50 AM 60.0°F15.6°C 57.4°F14.1°C 91% 0.8 mph N1.3 kmh N 6.0 mph9.7 kmh 30.04 in1017.3 mb 0.06 in1.5 mm 0.00 in0.0 mm 0.09 in2.3 mm
04:55 AM 60.0°F15.6°C 57.4°F14.1°C 91% 1.0 mph N1.6 kmh N 5.0 mph8.0 kmh 30.04 in1017.3 mb 0.06 in1.5 mm 0.00 in0.0 mm 0.09 in2.3 mm
05:00 AM 60.0°F15.6°C 57.4°F14.1°C 91% 0.7 mph NNW1.1 kmh NNW 5.0 mph8.0 kmh 30.05 in1017.6 mb 0.07 in1.8 mm 0.01 in0.3 mm 0.10 in2.5 mm
05:05 AM 60.0°F15.6°C 57.4°F14.1°C 91% 0.5 mph N0.8 kmh N 4.0 mph6.4 kmh 30.05 in1017.6 mb 0.07 in1.8 mm 0.00 in0.0 mm 0.11 in2.8 mm
05:10 AM 60.0°F15.6°C 57.4°F14.1°C 91% 0.8 mph N1.3 kmh N 5.0 mph8.0 kmh 30.05 in1017.6 mb 0.08 in2.0 mm 0.12 in3.0 mm 0.12 in3.0 mm
05:15 AM 60.0°F15.6°C 57.4°F14.1°C 91% 0.7 mph N1.1 kmh N 5.0 mph8.0 kmh 30.05 in1017.6 mb 0.08 in2.0 mm 0.00 in0.0 mm 0.13 in3.3 mm
05:20 AM 60.0°F15.6°C 57.4°F14.1°C 91% 0.8 mph N1.3 kmh N 6.0 mph9.7 kmh 30.05 in1017.6 mb 0.09 in2.3 mm 0.12 in3.0 mm 0.13 in3.3 mm
05:25 AM 60.0°F15.6°C 57.4°F14.1°C 91% 0.4 mph N0.6 kmh N 6.0 mph9.7 kmh 30.05 in1017.6 mb 0.09 in2.3 mm 0.00 in0.0 mm 0.14 in3.6 mm
05:30 AM 60.0°F15.6°C 57.4°F14.1°C 91% Calm Calm 4.0 mph6.4 kmh 30.05 in1017.6 mb 0.10 in2.5 mm 0.12 in3.0 mm 0.16 in4.1 mm
05:35 AM 60.0°F15.6°C 57.4°F14.1°C 91% 0.5 mph NW0.8 kmh NW 3.0 mph4.8 kmh 30.05 in1017.6 mb 0.10 in2.5 mm 0.00 in0.0 mm 0.17 in4.3 mm
05:40 AM 60.1°F15.6°C 57.8°F14.3°C 92% 1.1 mph NW1.8 kmh NW 5.0 mph8.0 kmh 30.05 in1017.6 mb 0.09 in2.3 mm 0.00 in0.0 mm 0.17 in4.3 mm
05:45 AM 60.2°F15.7°C 57.9°F14.4°C 92% 0.5 mph NW0.8 kmh NW 5.0 mph8.0 kmh 30.06 in1017.9 mb 0.09 in2.3 mm 0.00 in0.0 mm 0.17 in4.3 mm
05:50 AM 60.2°F15.7°C 57.9°F14.4°C 92% 0.8 mph NNW1.3 kmh NNW 5.0 mph8.0 kmh 30.06 in1017.9 mb 0.08 in2.0 mm 0.00 in0.0 mm 0.17 in4.3 mm
05:55 AM 60.2°F15.7°C 57.9°F14.4°C 92% 0.4 mph N0.6 kmh N 5.0 mph8.0 kmh 30.06 in1017.9 mb 0.08 in2.0 mm 0.00 in0.0 mm 0.17 in4.3 mm
06:00 AM 60.3°F15.7°C 58.0°F14.4°C 92% 0.8 mph NNW1.3 kmh NNW 8.0 mph12.9 kmh 30.06 in1017.9 mb 0.07 in1.8 mm 0.00 in0.0 mm 0.17 in4.3 mm
06:05 AM 60.3°F15.7°C 58.0°F14.4°C 92% 1.1 mph N1.8 kmh N 8.0 mph12.9 kmh 30.06 in1017.9 mb 0.07 in1.8 mm 0.00 in0.0 mm 0.18 in4.6 mm
06:10 AM 60.3°F15.7°C 58.0°F14.4°C 92% 1.1 mph NNW1.8 kmh NNW 6.0 mph9.7 kmh 30.06 in1017.9 mb 0.06 in1.5 mm 0.00 in0.0 mm 0.18 in4.6 mm
06:15 AM 60.2°F15.7°C 57.9°F14.4°C 92% 0.8 mph N1.3 kmh N 6.0 mph9.7 kmh 30.05 in1017.6 mb 0.06 in1.5 mm 0.00 in0.0 mm 0.18 in4.6 mm
06:20 AM 60.1°F15.6°C 57.8°F14.3°C 92% 0.4 mph NW0.6 kmh NW 5.0 mph8.0 kmh 30.05 in1017.6 mb 0.05 in1.3 mm 0.00 in0.0 mm 0.18 in4.6 mm
06:25 AM 60.0°F15.6°C 57.7°F14.3°C 92% 0.9 mph N1.4 kmh N 4.0 mph6.4 kmh 30.05 in1017.6 mb 0.04 in1.0 mm 0.00 in0.0 mm 0.18 in4.6 mm
06:30 AM 60.0°F15.6°C 57.7°F14.3°C 92% 0.4 mph N0.6 kmh N 4.0 mph6.4 kmh 30.06 in1017.9 mb 0.02 in0.5 mm 0.00 in0.0 mm 0.18 in4.6 mm
06:35 AM 60.1°F15.6°C 57.8°F14.3°C 92% 0.2 mph NW0.3 kmh NW 3.0 mph4.8 kmh 30.06 in1017.9 mb 0.02 in0.5 mm 0.00 in0.0 mm 0.18 in4.6 mm
06:40 AM 60.2°F15.7°C 57.9°F14.4°C 92% 0.5 mph N0.8 kmh N 3.0 mph4.8 kmh 30.06 in1017.9 mb 0.02 in0.5 mm 0.00 in0.0 mm 0.18 in4.6 mm
06:45 AM 60.1°F15.6°C 57.8°F14.3°C 92% 0.2 mph NNW0.3 kmh NNW 3.0 mph4.8 kmh 30.07 in1018.3 mb 0.02 in0.5 mm 0.00 in0.0 mm 0.18 in4.6 mm
06:50 AM 60.0°F15.6°C 57.7°F14.3°C 92% Calm Calm 3.0 mph4.8 kmh 30.07 in1018.3 mb 0.02 in0.5 mm 0.00 in0.0 mm 0.18 in4.6 mm
06:55 AM 59.8°F15.4°C 57.5°F14.2°C 92% 0.1 mph N0.2 kmh N 2.0 mph3.2 kmh 30.07 in1018.3 mb 0.01 in0.3 mm 0.00 in0.0 mm 0.18 in4.6 mm
07:00 AM 59.8°F15.4°C 57.5°F14.2°C 92% 0.2 mph N0.3 kmh N 3.0 mph4.8 kmh 30.07 in1018.3 mb 0.01 in0.3 mm 0.00 in0.0 mm 0.18 in4.6 mm
07:05 AM 59.9°F15.5°C 57.6°F14.2°C 92% 0.1 mph NNW0.2 kmh NNW 3.0 mph4.8 kmh 30.07 in1018.3 mb 0.00 in0.0 mm 0.00 in0.0 mm 0.18 in4.6 mm
07:10 AM 59.9°F15.5°C 57.6°F14.2°C 92% 0.4 mph NNW0.6 kmh NNW 2.0 mph3.2 kmh 30.07 in1018.3 mb 0.00 in0.0 mm 0.00 in0.0 mm 0.18 in4.6 mm
07:15 AM 59.8°F15.4°C 57.5°F14.2°C 92% 1.0 mph NNW1.6 kmh NNW 5.0 mph8.0 kmh 30.07 in1018.3 mb 0.00 in0.0 mm 0.00 in0.0 mm 0.18 in4.6 mm
07:20 AM 59.9°F15.5°C 57.6°F14.2°C 92% Calm Calm 5.0 mph8.0 kmh 30.07 in1018.3 mb 0.00 in0.0 mm 0.00 in0.0 mm 0.18 in4.6 mm
07:25 AM 60.1°F15.6°C 57.8°F14.3°C 92% Calm Calm 1.0 mph1.6 kmh 30.07 in1018.3 mb 0.00 in0.0 mm 0.00 in0.0 mm 0.18 in4.6 mm
07:30 AM 60.2°F15.7°C 57.9°F14.4°C 92% 0.5 mph W0.8 kmh W 3.0 mph4.8 kmh 30.08 in1018.6 mb 0.00 in0.0 mm 0.00 in0.0 mm 0.18 in4.6 mm
07:35 AM 60.3°F15.7°C 58.0°F14.4°C 92% 0.1 mph NNW0.2 kmh NNW 3.0 mph4.8 kmh 30.08 in1018.6 mb 0.00 in0.0 mm 0.00 in0.0 mm 0.18 in4.6 mm
07:40 AM 60.3°F15.7°C 58.0°F14.4°C 92% 0.4 mph N0.6 kmh N 3.0 mph4.8 kmh 30.08 in1018.6 mb 0.00 in0.0 mm 0.00 in0.0 mm 0.18 in4.6 mm
07:45 AM 60.3°F15.7°C 58.0°F14.4°C 92% 0.6 mph NNW1.0 kmh NNW 4.0 mph6.4 kmh 30.09 in1019.0 mb 0.00 in0.0 mm 0.00 in0.0 mm 0.18 in4.6 mm
07:50 AM 60.3°F15.7°C 58.0°F14.4°C 92% 0.4 mph N0.6 kmh N 4.0 mph6.4 kmh 30.09 in1019.0 mb 0.00 in0.0 mm 0.00 in0.0 mm 0.18 in4.6 mm
07:55 AM 60.3°F15.7°C 58.0°F14.4°C 92% 0.9 mph WNW1.4 kmh WNW 5.0 mph8.0 kmh 30.09 in1019.0 mb 0.00 in0.0 mm 0.00 in0.0 mm 0.18 in4.6 mm
08:00 AM 60.4°F15.8°C 58.1°F14.5°C 92% 0.5 mph W0.8 kmh W 7.0 mph11.3 kmh 30.10 in1019.3 mb 0.01 in0.3 mm 0.01 in0.3 mm 0.19 in4.8 mm
08:05 AM 60.4°F15.8°C 58.1°F14.5°C 92% Calm Calm 7.0 mph11.3 kmh 30.10 in1019.3 mb 0.01 in0.3 mm 0.00 in0.0 mm 0.19 in4.8 mm
08:10 AM 60.4°F15.8°C 58.1°F14.5°C 92% 0.3 mph N0.5 kmh N 3.0 mph4.8 kmh 30.10 in1019.3 mb 0.01 in0.3 mm 0.00 in0.0 mm 0.19 in4.8 mm
08:15 AM 60.4°F15.8°C 58.1°F14.5°C 92% 0.2 mph W0.3 kmh W 3.0 mph4.8 kmh 30.10 in1019.3 mb 0.01 in0.3 mm 0.00 in0.0 mm 0.19 in4.8 mm
08:20 AM 60.5°F15.8°C 58.2°F14.6°C 92% 0.5 mph NW0.8 kmh NW 3.0 mph4.8 kmh 30.10 in1019.3 mb 0.01 in0.3 mm 0.00 in0.0 mm 0.19 in4.8 mm
08:25 AM 60.5°F15.8°C 58.2°F14.6°C 92% 0.5 mph N0.8 kmh N 5.0 mph8.0 kmh 30.10 in1019.3 mb 0.01 in0.3 mm 0.00 in0.0 mm 0.19 in4.8 mm
08:30 AM 60.5°F15.8°C 58.2°F14.6°C 92% 0.9 mph NNW1.4 kmh NNW 8.0 mph12.9 kmh 30.10 in1019.3 mb 0.01 in0.3 mm 0.00 in0.0 mm 0.19 in4.8 mm
08:35 AM 60.6°F15.9°C 58.3°F14.6°C 92% 0.5 mph NNW0.8 kmh NNW 8.0 mph12.9 kmh 30.10 in1019.3 mb 0.01 in0.3 mm 0.00 in0.0 mm 0.19 in4.8 mm
08:40 AM 60.8°F16.0°C 58.5°F14.7°C 92% 0.5 mph NW0.8 kmh NW 4.0 mph6.4 kmh 30.10 in1019.3 mb 0.01 in0.3 mm 0.00 in0.0 mm 0.19 in4.8 mm
08:45 AM 60.8°F16.0°C 58.5°F14.7°C 92% 0.5 mph NW0.8 kmh NW 4.0 mph6.4 kmh 30.11 in1019.6 mb 0.01 in0.3 mm 0.00 in0.0 mm 0.19 in4.8 mm
08:50 AM 60.8°F16.0°C 58.5°F14.7°C 92% 0.8 mph NNW1.3 kmh NNW 4.0 mph6.4 kmh 30.11 in1019.6 mb 0.01 in0.3 mm 0.00 in0.0 mm 0.19 in4.8 mm
08:55 AM 60.8°F16.0°C 58.5°F14.7°C 92% 1.5 mph NNW2.4 kmh NNW 6.0 mph9.7 kmh 30.11 in1019.6 mb 0.01 in0.3 mm 0.00 in0.0 mm 0.19 in4.8 mm
09:00 AM 60.8°F16.0°C 58.5°F14.7°C 92% 1.3 mph NW2.1 kmh NW 6.0 mph9.7 kmh 30.11 in1019.6 mb 0.00 in0.0 mm 0.00 in0.0 mm 0.19 in4.8 mm
09:05 AM 60.8°F16.0°C 58.5°F14.7°C 92% 0.7 mph NNW1.1 kmh NNW 5.0 mph8.0 kmh 30.11 in1019.6 mb 0.00 in0.0 mm 0.00 in0.0 mm 0.19 in4.8 mm
09:10 AM 60.9°F16.1°C 58.6°F14.8°C 92% Calm Calm 5.0 mph8.0 kmh 30.11 in1019.6 mb 0.00 in0.0 mm 0.00 in0.0 mm 0.19 in4.8 mm
09:15 AM 61.1°F16.2°C 58.8°F14.9°C 92% 0.1 mph NW0.2 kmh NW 2.0 mph3.2 kmh 30.11 in1019.6 mb 0.00 in0.0 mm 0.00 in0.0 mm 0.19 in4.8 mm
09:20 AM 61.1°F16.2°C 58.8°F14.9°C 92% 0.6 mph NW1.0 kmh NW 4.0 mph6.4 kmh 30.11 in1019.6 mb 0.01 in0.3 mm 0.12 in3.0 mm 0.20 in5.1 mm
09:25 AM 61.1°F16.2°C 58.8°F14.9°C 92% Calm Calm 4.0 mph6.4 kmh 30.11 in1019.6 mb 0.02 in0.5 mm 0.12 in3.0 mm 0.20 in5.1 mm
09:30 AM 61.1°F16.2°C 58.8°F14.9°C 92% 0.1 mph NW0.2 kmh NW 2.0 mph3.2 kmh 30.12 in1020.0 mb 0.02 in0.5 mm 0.00 in0.0 mm 0.20 in5.1 mm
09:35 AM 61.4°F16.3°C 59.1°F15.1°C 92% 1.0 mph NNW1.6 kmh NNW 5.0 mph8.0 kmh 30.12 in1020.0 mb 0.02 in0.5 mm 0.00 in0.0 mm 0.20 in5.1 mm
09:40 AM 61.6°F16.4°C 59.3°F15.2°C 92% 0.2 mph NW0.3 kmh NW 5.0 mph8.0 kmh 30.12 in1020.0 mb 0.02 in0.5 mm 0.00 in0.0 mm 0.20 in5.1 mm
09:45 AM 61.6°F16.4°C 59.3°F15.2°C 92% 0.2 mph WNW0.3 kmh WNW 2.0 mph3.2 kmh 30.13 in1020.3 mb 0.02 in0.5 mm 0.00 in0.0 mm 0.20 in5.1 mm
09:50 AM 61.4°F16.3°C 59.1°F15.1°C 92% 1.4 mph NNW2.3 kmh NNW 5.0 mph8.0 kmh 30.13 in1020.3 mb 0.02 in0.5 mm 0.00 in0.0 mm 0.21 in5.3 mm
09:55 AM 61.3°F16.3°C 59.0°F15.0°C 92% 1.0 mph NNW1.6 kmh NNW 5.0 mph8.0 kmh 30.13 in1020.3 mb 0.02 in0.5 mm 0.00 in0.0 mm 0.21 in5.3 mm
10:00 AM 61.4°F16.3°C 59.1°F15.1°C 92% 1.1 mph NNW1.8 kmh NNW 5.0 mph8.0 kmh 30.13 in1020.3 mb 0.02 in0.5 mm 0.00 in0.0 mm 0.21 in5.3 mm
10:05 AM 61.5°F16.4°C 59.2°F15.1°C 92% 0.9 mph NNW1.4 kmh NNW 8.0 mph12.9 kmh 30.13 in1020.3 mb 0.03 in0.8 mm 0.12 in3.0 mm 0.22 in5.6 mm
10:10 AM 61.6°F16.4°C 59.3°F15.2°C 92% 1.0 mph NNW1.6 kmh NNW 8.0 mph12.9 kmh 30.13 in1020.3 mb 0.03 in0.8 mm 0.00 in0.0 mm 0.22 in5.6 mm
10:15 AM 61.4°F16.3°C 59.1°F15.1°C 92% 0.7 mph NW1.1 kmh NW 5.0 mph8.0 kmh 30.14 in1020.7 mb 0.03 in0.8 mm 0.00 in0.0 mm 0.22 in5.6 mm
10:20 AM 61.3°F16.3°C 59.0°F15.0°C 92% 1.0 mph NW1.6 kmh NW 6.0 mph9.7 kmh 30.14 in1020.7 mb 0.04 in1.0 mm 0.12 in3.0 mm 0.24 in6.1 mm
10:25 AM 61.4°F16.3°C 59.1°F15.1°C 92% 0.4 mph N0.6 kmh N 6.0 mph9.7 kmh 30.14 in1020.7 mb 0.03 in0.8 mm 0.00 in0.0 mm 0.24 in6.1 mm
10:30 AM 62.0°F16.7°C 59.6°F15.3°C 92% 1.1 mph NW1.8 kmh NW 4.0 mph6.4 kmh 30.13 in1020.3 mb 0.03 in0.8 mm 0.00 in0.0 mm 0.24 in6.1 mm
10:35 AM 62.4°F16.9°C 60.0°F15.6°C 92% 1.8 mph NW2.9 kmh NW 6.0 mph9.7 kmh 30.13 in1020.3 mb 0.03 in0.8 mm 0.00 in0.0 mm 0.24 in6.1 mm
10:40 AM 62.2°F16.8°C 59.8°F15.4°C 92% 1.8 mph NW2.9 kmh NW 6.0 mph9.7 kmh 30.13 in1020.3 mb 0.03 in0.8 mm 0.00 in0.0 mm 0.24 in6.1 mm
10:45 AM 62.3°F16.8°C 59.9°F15.5°C 92% 1.7 mph NW2.7 kmh NW 6.0 mph9.7 kmh 30.13 in1020.3 mb 0.03 in0.8 mm 0.00 in0.0 mm 0.24 in6.1 mm
10:50 AM 62.5°F16.9°C 60.1°F15.6°C 92% 1.0 mph NW1.6 kmh NW 6.0 mph9.7 kmh 30.13 in1020.3 mb 0.02 in0.5 mm 0.00 in0.0 mm 0.24 in6.1 mm
10:55 AM 62.1°F16.7°C 59.7°F15.4°C 92% 1.0 mph NW1.6 kmh NW 4.0 mph6.4 kmh 30.13 in1020.3 mb 0.02 in0.5 mm 0.00 in0.0 mm 0.24 in6.1 mm
11:00 AM 62.2°F16.8°C 59.8°F15.4°C 92% 1.5 mph NNW2.4 kmh NNW 6.0 mph9.7 kmh 30.14 in1020.7 mb 0.02 in0.5 mm 0.00 in0.0 mm 0.24 in6.1 mm
11:05 AM 62.2°F16.8°C 59.8°F15.4°C 92% 0.5 mph NW0.8 kmh NW 6.0 mph9.7 kmh 30.14 in1020.7 mb 0.02 in0.5 mm 0.00 in0.0 mm 0.24 in6.1 mm
11:10 AM 62.3°F16.8°C 59.9°F15.5°C 92% 0.2 mph NNW0.3 kmh NNW 6.0 mph9.7 kmh 30.14 in1020.7 mb 0.02 in0.5 mm 0.00 in0.0 mm 0.24 in6.1 mm
11:15 AM 62.2°F16.8°C 59.8°F15.4°C 92% 1.2 mph NNW1.9 kmh NNW 5.0 mph8.0 kmh 30.13 in1020.3 mb 0.02 in0.5 mm 0.00 in0.0 mm 0.24 in6.1 mm
11:20 AM 62.3°F16.8°C 59.9°F15.5°C 92% 1.0 mph NW1.6 kmh NW 6.0 mph9.7 kmh 30.13 in1020.3 mb 0.01 in0.3 mm 0.00 in0.0 mm 0.24 in6.1 mm
11:25 AM 62.3°F16.8°C 59.9°F15.5°C 92% 1.3 mph NNW2.1 kmh NNW 8.0 mph12.9 kmh 30.13 in1020.3 mb 0.01 in0.3 mm 0.00 in0.0 mm 0.24 in6.1 mm
11:30 AM 62.5°F16.9°C 60.1°F15.6°C 92% 0.6 mph N1.0 kmh N 8.0 mph12.9 kmh 30.13 in1020.3 mb 0.01 in0.3 mm 0.00 in0.0 mm 0.24 in6.1 mm
11:35 AM 63.1°F17.3°C 60.7°F15.9°C 92% 1.3 mph NNW2.1 kmh NNW 5.0 mph8.0 kmh 30.13 in1020.3 mb 0.01 in0.3 mm 0.00 in0.0 mm 0.24 in6.1 mm
11:40 AM 62.9°F17.2°C 60.5°F15.8°C 92% 1.5 mph NW2.4 kmh NW 6.0 mph9.7 kmh 30.13 in1020.3 mb 0.01 in0.3 mm 0.00 in0.0 mm 0.24 in6.1 mm
11:45 AM 62.7°F17.1°C 60.3°F15.7°C 92% 0.6 mph NW1.0 kmh NW 6.0 mph9.7 kmh 30.13 in1020.3 mb 0.01 in0.3 mm 0.00 in0.0 mm 0.24 in6.1 mm
11:50 AM 62.7°F17.1°C 60.3°F15.7°C 92% 0.5 mph WNW0.8 kmh WNW 4.0 mph6.4 kmh 30.13 in1020.3 mb 0.01 in0.3 mm 0.00 in0.0 mm 0.24 in6.1 mm
11:55 AM 62.7°F17.1°C 60.3°F15.7°C 92% 0.6 mph WNW1.0 kmh WNW 3.0 mph4.8 kmh 30.13 in1020.3 mb 0.01 in0.3 mm 0.00 in0.0 mm 0.24 in6.1 mm
12:00 PM 62.5°F16.9°C 60.1°F15.6°C 92% 0.7 mph NW1.1 kmh NW 6.0 mph9.7 kmh 30.12 in1020.0 mb 0.01 in0.3 mm 0.00 in0.0 mm 0.24 in6.1 mm
12:05 PM 62.7°F17.1°C 60.3°F15.7°C 92% Calm Calm 6.0 mph9.7 kmh 30.12 in1020.0 mb 0.01 in0.3 mm 0.00 in0.0 mm 0.24 in6.1 mm
12:10 PM 63.0°F17.2°C 60.6°F15.9°C 92% 1.0 mph NNW1.6 kmh NNW 7.0 mph11.3 kmh 30.12 in1020.0 mb 0.00 in0.0 mm 0.00 in0.0 mm 0.24 in6.1 mm
12:15 PM 63.1°F17.3°C 60.7°F15.9°C 92% 0.9 mph NW1.4 kmh NW 7.0 mph11.3 kmh 30.12 in1020.0 mb 0.00 in0.0 mm 0.00 in0.0 mm 0.24 in6.1 mm
12:20 PM 63.6°F17.6°C 60.9°F16.1°C 91% 0.2 mph NNW0.3 kmh NNW 4.0 mph6.4 kmh 30.12 in1020.0 mb 0.00 in0.0 mm 0.00 in0.0 mm 0.24 in6.1 mm
12:25 PM 64.1°F17.8°C 61.4°F16.3°C 91% 0.5 mph NW0.8 kmh NW 4.0 mph6.4 kmh 30.12 in1020.0 mb 0.00 in0.0 mm 0.00 in0.0 mm 0.24 in6.1 mm
12:30 PM 64.2°F17.9°C 61.5°F16.4°C 91% 0.9 mph NW1.4 kmh NW 5.0 mph8.0 kmh 30.11 in1019.6 mb 0.00 in0.0 mm 0.00 in0.0 mm 0.24 in6.1 mm
12:35 PM 64.3°F17.9°C 61.3°F16.3°C 90% 1.5 mph NW2.4 kmh NW 5.0 mph8.0 kmh 30.11 in1019.6 mb 0.00 in0.0 mm 0.00 in0.0 mm 0.24 in6.1 mm
12:40 PM 64.5°F18.1°C 61.5°F16.4°C 90% 1.1 mph NW1.8 kmh NW 5.0 mph8.0 kmh 30.11 in1019.6 mb 0.00 in0.0 mm 0.00 in0.0 mm 0.24 in6.1 mm
12:45 PM 64.3°F17.9°C 61.0°F16.1°C 89% 0.8 mph W1.3 kmh W 5.0 mph8.0 kmh 30.11 in1019.6 mb 0.01 in0.3 mm 0.12 in3.0 mm 0.25 in6.4 mm
12:50 PM 64.2°F17.9°C 61.2°F16.2°C 90% 1.5 mph N2.4 kmh N 8.0 mph12.9 kmh 30.11 in1019.6 mb 0.01 in0.3 mm 0.00 in0.0 mm 0.25 in6.4 mm
12:55 PM 64.3°F17.9°C 61.3°F16.3°C 90% 0.5 mph NNW0.8 kmh NNW 8.0 mph12.9 kmh 30.11 in1019.6 mb 0.01 in0.3 mm 0.00 in0.0 mm 0.25 in6.4 mm
01:00 PM 65.2°F18.4°C 61.9°F16.6°C 89% 1.5 mph N2.4 kmh N 6.0 mph9.7 kmh 30.10 in1019.3 mb 0.01 in0.3 mm 0.00 in0.0 mm 0.25 in6.4 mm
01:05 PM 65.3°F18.5°C 62.0°F16.7°C 89% 0.1 mph NNW0.2 kmh NNW 6.0 mph9.7 kmh 30.10 in1019.3 mb 0.01 in0.3 mm 0.00 in0.0 mm 0.25 in6.4 mm
01:10 PM 65.0°F18.3°C 61.4°F16.3°C 88% 0.6 mph W1.0 kmh W 3.0 mph4.8 kmh 30.10 in1019.3 mb 0.01 in0.3 mm 0.00 in0.0 mm 0.25 in6.4 mm
01:15 PM 64.8°F18.2°C 61.2°F16.2°C 88% 1.1 mph WNW1.8 kmh WNW 6.0 mph9.7 kmh 30.10 in1019.3 mb 0.01 in0.3 mm 0.00 in0.0 mm 0.25 in6.4 mm
01:20 PM 64.6°F18.1°C 61.0°F16.1°C 88% Calm Calm 6.0 mph9.7 kmh 30.10 in1019.3 mb 0.01 in0.3 mm 0.00 in0.0 mm 0.25 in6.4 mm
01:25 PM 64.7°F18.2°C 61.1°F16.2°C 88% Calm Calm 1.0 mph1.6 kmh 30.10 in1019.3 mb 0.01 in0.3 mm 0.00 in0.0 mm 0.25 in6.4 mm
01:30 PM 65.2°F18.4°C 61.6°F16.4°C 88% 0.1 mph W0.2 kmh W 3.0 mph4.8 kmh 30.09 in1019.0 mb 0.01 in0.3 mm 0.00 in0.0 mm 0.25 in6.4 mm
01:35 PM 66.3°F19.1°C 63.0°F17.2°C 89% 1.3 mph N2.1 kmh N 5.0 mph8.0 kmh 30.09 in1019.0 mb 0.01 in0.3 mm 0.00 in0.0 mm 0.25 in6.4 mm
01:40 PM 66.3°F19.1°C 62.3°F16.8°C 87% 1.9 mph NW3.1 kmh NW 5.0 mph8.0 kmh 30.09 in1019.0 mb 0.01 in0.3 mm 0.00 in0.0 mm 0.25 in6.4 mm
01:45 PM 65.8°F18.8°C 61.5°F16.4°C 86% 1.1 mph NW1.8 kmh NW 5.0 mph8.0 kmh 30.09 in1019.0 mb 0.00 in0.0 mm 0.00 in0.0 mm 0.25 in6.4 mm
01:50 PM 67.3°F19.6°C 62.3°F16.8°C 84% 1.4 mph WNW2.3 kmh WNW 6.0 mph9.7 kmh 30.09 in1019.0 mb 0.00 in0.0 mm 0.00 in0.0 mm 0.25 in6.4 mm
01:55 PM 68.5°F20.3°C 62.8°F17.1°C 82% 1.7 mph NW2.7 kmh NW 6.0 mph9.7 kmh 30.09 in1019.0 mb 0.00 in0.0 mm 0.00 in0.0 mm 0.25 in6.4 mm
02:00 PM 69.3°F20.7°C 62.1°F16.7°C 78% 1.8 mph WNW2.9 kmh WNW 6.0 mph9.7 kmh 30.08 in1018.6 mb 0.00 in0.0 mm 0.00 in0.0 mm 0.25 in6.4 mm
02:05 PM 69.2°F20.7°C 61.3°F16.3°C 76% 1.2 mph NW1.9 kmh NW 5.0 mph8.0 kmh 30.08 in1018.6 mb 0.00 in0.0 mm 0.00 in0.0 mm 0.25 in6.4 mm
02:10 PM 68.8°F20.4°C 60.9°F16.1°C 76% 1.5 mph WNW2.4 kmh WNW 9.0 mph14.5 kmh 30.08 in1018.6 mb 0.00 in0.0 mm 0.00 in0.0 mm 0.25 in6.4 mm
02:15 PM 69.0°F20.6°C 61.1°F16.2°C 76% 1.5 mph NW2.4 kmh NW 9.0 mph14.5 kmh 30.08 in1018.6 mb 0.00 in0.0 mm 0.00 in0.0 mm 0.25 in6.4 mm
02:20 PM 69.1°F20.6°C 61.6°F16.4°C 77% 0.5 mph W0.8 kmh W 6.0 mph9.7 kmh 30.08 in1018.6 mb 0.00 in0.0 mm 0.00 in0.0 mm 0.25 in6.4 mm
02:25 PM 69.9°F21.1°C 61.6°F16.4°C 75% 0.9 mph W1.4 kmh W 5.0 mph8.0 kmh 30.08 in1018.6 mb 0.00 in0.0 mm 0.00 in0.0 mm 0.25 in6.4 mm
02:30 PM 71.1°F21.7°C 62.0°F16.7°C 73% 0.6 mph N1.0 kmh N 5.0 mph8.0 kmh 30.08 in1018.6 mb 0.00 in0.0 mm 0.00 in0.0 mm 0.25 in6.4 mm
02:35 PM 70.7°F21.5°C 61.6°F16.4°C 73% 0.6 mph NW1.0 kmh NW 4.0 mph6.4 kmh 30.08 in1018.6 mb 0.00 in0.0 mm 0.00 in0.0 mm 0.25 in6.4 mm
02:40 PM 70.8°F21.6°C 62.1°F16.7°C 74% Calm Calm 3.0 mph4.8 kmh 30.08 in1018.6 mb 0.00 in0.0 mm 0.00 in0.0 mm 0.25 in6.4 mm
02:45 PM 70.3°F21.3°C 61.2°F16.2°C 73% 0.5 mph NNW0.8 kmh NNW 2.0 mph3.2 kmh 30.07 in1018.3 mb 0.00 in0.0 mm 0.00 in0.0 mm 0.25 in6.4 mm
02:50 PM 69.6°F20.9°C 60.9°F16.1°C 74% 0.4 mph N0.6 kmh N 5.0 mph8.0 kmh 30.07 in1018.3 mb 0.00 in0.0 mm 0.00 in0.0 mm 0.25 in6.4 mm
02:55 PM 69.3°F20.7°C 60.3°F15.7°C 73% 1.2 mph NW1.9 kmh NW 5.0 mph8.0 kmh 30.07 in1018.3 mb 0.00 in0.0 mm 0.00 in0.0 mm 0.25 in6.4 mm
03:00 PM 69.2°F20.7°C 60.9°F16.1°C 75% 1.0 mph NW1.6 kmh NW 4.0 mph6.4 kmh 30.07 in1018.3 mb 0.00 in0.0 mm 0.00 in0.0 mm 0.25 in6.4 mm
03:05 PM 69.4°F20.8°C 60.7°F15.9°C 74% 1.6 mph WNW2.6 kmh WNW 5.0 mph8.0 kmh 30.07 in1018.3 mb 0.00 in0.0 mm 0.00 in0.0 mm 0.25 in6.4 mm
03:10 PM 69.4°F20.8°C 60.4°F15.8°C 73% 1.1 mph NW1.8 kmh NW 5.0 mph8.0 kmh 30.07 in1018.3 mb 0.00 in0.0 mm 0.00 in0.0 mm 0.25 in6.4 mm
03:15 PM 69.4°F20.8°C 60.7°F15.9°C 74% 2.0 mph NW3.2 kmh NW 6.0 mph9.7 kmh 30.07 in1018.3 mb 0.00 in0.0 mm 0.00 in0.0 mm 0.25 in6.4 mm
03:20 PM 69.6°F20.9°C 60.6°F15.9°C 73% 1.0 mph NW1.6 kmh NW 6.0 mph9.7 kmh 30.07 in1018.3 mb 0.00 in0.0 mm 0.00 in0.0 mm 0.25 in6.4 mm
03:25 PM 69.7°F20.9°C 60.6°F15.9°C 73% 1.0 mph NW1.6 kmh NW 6.0 mph9.7 kmh 30.07 in1018.3 mb 0.00 in0.0 mm 0.00 in0.0 mm 0.25 in6.4 mm
03:30 PM 69.2°F20.7°C 60.2°F15.7°C 73% 1.8 mph NW2.9 kmh NW 7.0 mph11.3 kmh 30.07 in1018.3 mb 0.00 in0.0 mm 0.00 in0.0 mm 0.25 in6.4 mm
03:35 PM 69.6°F20.9°C 60.6°F15.9°C 73% 0.3 mph WNW0.5 kmh WNW 7.0 mph11.3 kmh 30.07 in1018.3 mb 0.00 in0.0 mm 0.00 in0.0 mm 0.25 in6.4 mm
03:40 PM 69.6°F20.9°C 59.8°F15.4°C 71% 0.5 mph NW0.8 kmh NW 4.0 mph6.4 kmh 30.07 in1018.3 mb 0.00 in0.0 mm 0.00 in0.0 mm 0.25 in6.4 mm
03:45 PM 69.5°F20.8°C 59.7°F15.4°C 71% 1.0 mph NNW1.6 kmh NNW 7.0 mph11.3 kmh 30.07 in1018.3 mb 0.00 in0.0 mm 0.00 in0.0 mm 0.25 in6.4 mm
03:50 PM 69.5°F20.8°C 59.7°F15.4°C 71% 0.1 mph W0.2 kmh W 7.0 mph11.3 kmh 30.07 in1018.3 mb 0.00 in0.0 mm 0.00 in0.0 mm 0.25 in6.4 mm
03:55 PM 69.4°F20.8°C 59.2°F15.1°C 70% 0.1 mph W0.2 kmh W 2.0 mph3.2 kmh 30.07 in1018.3 mb 0.00 in0.0 mm 0.00 in0.0 mm 0.25 in6.4 mm
04:00 PM 69.2°F20.7°C 59.0°F15.0°C 70% 0.4 mph N0.6 kmh N 4.0 mph6.4 kmh 30.07 in1018.3 mb 0.00 in0.0 mm 0.00 in0.0 mm 0.25 in6.4 mm
04:05 PM 69.2°F20.7°C 59.4°F15.2°C 71% 0.1 mph W0.2 kmh W 4.0 mph6.4 kmh 30.07 in1018.3 mb 0.00 in0.0 mm 0.00 in0.0 mm 0.25 in6.4 mm
04:10 PM 69.1°F20.6°C 59.3°F15.2°C 71% 0.4 mph NNW0.6 kmh NNW 5.0 mph8.0 kmh 30.07 in1018.3 mb 0.00 in0.0 mm 0.00 in0.0 mm 0.25 in6.4 mm
04:15 PM 69.2°F20.7°C 59.8°F15.4°C 72% 0.1 mph W0.2 kmh W 5.0 mph8.0 kmh 30.07 in1018.3 mb 0.00 in0.0 mm 0.00 in0.0 mm 0.25 in6.4 mm
04:20 PM 69.1°F20.6°C 59.7°F15.4°C 72% Calm Calm 3.0 mph4.8 kmh 30.07 in1018.3 mb 0.00 in0.0 mm 0.00 in0.0 mm 0.25 in6.4 mm
04:25 PM 68.9°F20.5°C 58.7°F14.8°C 70% 0.4 mph NW0.6 kmh NW 3.0 mph4.8 kmh 30.07 in1018.3 mb 0.00 in0.0 mm 0.00 in0.0 mm 0.25 in6.4 mm
04:30 PM 68.9°F20.5°C 59.1°F15.1°C 71% Calm Calm 3.0 mph4.8 kmh 30.06 in1017.9 mb 0.00 in0.0 mm 0.00 in0.0 mm 0.25 in6.4 mm
04:35 PM 68.7°F20.4°C 58.9°F14.9°C 71% Calm Calm 1.0 mph1.6 kmh 30.06 in1017.9 mb 0.00 in0.0 mm 0.00 in0.0 mm 0.25 in6.4 mm
04:40 PM 68.6°F20.3°C 59.2°F15.1°C 72% 0.4 mph W0.6 kmh W 2.0 mph3.2 kmh 30.06 in1017.9 mb 0.00 in0.0 mm 0.00 in0.0 mm 0.25 in6.4 mm
04:45 PM 68.6°F20.3°C 59.2°F15.1°C 72% Calm Calm 2.0 mph3.2 kmh 30.06 in1017.9 mb 0.00 in0.0 mm 0.00 in0.0 mm 0.25 in6.4 mm
04:50 PM 68.4°F20.2°C 59.4°F15.2°C 73% Calm Calm 1.0 mph1.6 kmh 30.06 in1017.9 mb 0.00 in0.0 mm 0.00 in0.0 mm 0.25 in6.4 mm
04:55 PM 68.4°F20.2°C 59.0°F15.0°C 72% 0.1 mph WNW0.2 kmh WNW 3.0 mph4.8 kmh 30.06 in1017.9 mb 0.00 in0.0 mm 0.00 in0.0 mm 0.25 in6.4 mm
05:00 PM 68.3°F20.2°C 58.9°F14.9°C 72% 0.2 mph W0.3 kmh W 3.0 mph4.8 kmh 30.06 in1017.9 mb 0.00 in0.0 mm 0.00 in0.0 mm 0.25 in6.4 mm
05:05 PM 68.2°F20.1°C 58.8°F14.9°C 72% 0.4 mph W0.6 kmh W 4.0 mph6.4 kmh 30.06 in1017.9 mb 0.00 in0.0 mm 0.00 in0.0 mm 0.25 in6.4 mm
05:10 PM 68.1°F20.1°C 58.7°F14.8°C 72% Calm Calm 4.0 mph6.4 kmh 30.06 in1017.9 mb 0.00 in0.0 mm 0.00 in0.0 mm 0.25 in6.4 mm
05:15 PM 68.1°F20.1°C 59.1°F15.1°C 73% Calm Calm 1.0 mph1.6 kmh 30.07 in1018.3 mb 0.00 in0.0 mm 0.00 in0.0 mm 0.25 in6.4 mm
05:20 PM 68.0°F20.0°C 59.0°F15.0°C 73% 0.1 mph W0.2 kmh W 2.0 mph3.2 kmh 30.07 in1018.3 mb 0.00 in0.0 mm 0.00 in0.0 mm 0.25 in6.4 mm
05:25 PM 67.6°F19.8°C 58.6°F14.8°C 73% Calm Calm 2.0 mph3.2 kmh 30.07 in1018.3 mb 0.00 in0.0 mm 0.00 in0.0 mm 0.25 in6.4 mm
05:30 PM 67.1°F19.5°C 58.5°F14.7°C 74% 0.1 mph W0.2 kmh W 2.0 mph3.2 kmh 30.06 in1017.9 mb 0.00 in0.0 mm 0.00 in0.0 mm 0.25 in6.4 mm
05:35 PM 66.8°F19.3°C 58.6°F14.8°C 75% Calm Calm 2.0 mph3.2 kmh 30.06 in1017.9 mb 0.00 in0.0 mm 0.00 in0.0 mm 0.25 in6.4 mm
05:40 PM 66.3°F19.1°C 58.1°F14.5°C 75% Calm Calm 1.0 mph1.6 kmh 30.06 in1017.9 mb 0.00 in0.0 mm 0.00 in0.0 mm 0.25 in6.4 mm
05:45 PM 65.9°F18.8°C 58.1°F14.5°C 76% Calm Calm 1.0 mph1.6 kmh 30.07 in1018.3 mb 0.00 in0.0 mm 0.00 in0.0 mm 0.25 in6.4 mm
05:50 PM 65.5°F18.6°C 58.1°F14.5°C 77% Calm Calm 1.0 mph1.6 kmh 30.07 in1018.3 mb 0.00 in0.0 mm 0.00 in0.0 mm 0.25 in6.4 mm
05:55 PM 65.1°F18.4°C 57.7°F14.3°C 77% Calm Calm -- 30.07 in1018.3 mb 0.00 in0.0 mm 0.00 in0.0 mm 0.25 in6.4 mm
06:00 PM 64.7°F18.2°C 57.7°F14.3°C 78% Calm Calm -- 30.07 in1018.3 mb 0.00 in0.0 mm 0.00 in0.0 mm 0.25 in6.4 mm
06:05 PM 64.3°F17.9°C 57.6°F14.2°C 79% Calm Calm -- 30.07 in1018.3 mb 0.00 in0.0 mm 0.00 in0.0 mm 0.25 in6.4 mm
06:10 PM 64.1°F17.8°C 57.4°F14.1°C 79% Calm Calm -- 30.07 in1018.3 mb 0.00 in0.0 mm 0.00 in0.0 mm 0.25 in6.4 mm
06:15 PM 63.9°F17.7°C 57.6°F14.2°C 80% Calm Calm -- 30.07 in1018.3 mb 0.00 in0.0 mm 0.00 in0.0 mm 0.25 in6.4 mm
06:20 PM 63.6°F17.6°C 57.3°F14.1°C 80% Calm Calm -- 30.07 in1018.3 mb 0.00 in0.0 mm 0.00 in0.0 mm 0.25 in6.4 mm
06:25 PM 63.4°F17.4°C 57.5°F14.2°C 81% Calm Calm -- 30.07 in1018.3 mb 0.00 in0.0 mm 0.00 in0.0 mm 0.25 in6.4 mm
06:30 PM 63.2°F17.3°C 57.3°F14.1°C 81% Calm Calm -- 30.07 in1018.3 mb 0.00 in0.0 mm 0.00 in0.0 mm 0.25 in6.4 mm
06:35 PM 63.0°F17.2°C 57.4°F14.1°C 82% Calm Calm -- 30.07 in1018.3 mb 0.00 in0.0 mm 0.00 in0.0 mm 0.25 in6.4 mm
06:40 PM 62.7°F17.1°C 57.5°F14.2°C 83% Calm Calm -- 30.07 in1018.3 mb 0.00 in0.0 mm 0.00 in0.0 mm 0.25 in6.4 mm
06:45 PM 62.5°F16.9°C 57.3°F14.1°C 83% Calm Calm -- 30.08 in1018.6 mb 0.00 in0.0 mm 0.00 in0.0 mm 0.25 in6.4 mm
06:50 PM 62.2°F16.8°C 57.3°F14.1°C 84% Calm Calm -- 30.08 in1018.6 mb 0.00 in0.0 mm 0.00 in0.0 mm 0.25 in6.4 mm
06:55 PM 62.0°F16.7°C 57.1°F13.9°C 84% Calm Calm -- 30.08 in1018.6 mb 0.00 in0.0 mm 0.00 in0.0 mm 0.25 in6.4 mm
07:00 PM 61.6°F16.4°C 56.7°F13.7°C 84% Calm Calm -- 30.08 in1018.6 mb 0.00 in0.0 mm 0.00 in0.0 mm 0.25 in6.4 mm
07:05 PM 61.3°F16.3°C 56.4°F13.6°C 84% Calm Calm -- 30.08 in1018.6 mb 0.00 in0.0 mm 0.00 in0.0 mm 0.25 in6.4 mm
07:10 PM 61.0°F16.1°C 56.5°F13.6°C 85% Calm Calm -- 30.08 in1018.6 mb 0.00 in0.0 mm 0.00 in0.0 mm 0.25 in6.4 mm
07:15 PM 60.6°F15.9°C 56.1°F13.4°C 85% Calm Calm -- 30.09 in1019.0 mb 0.00 in0.0 mm 0.00 in0.0 mm 0.25 in6.4 mm
07:20 PM 60.3°F15.7°C 56.1°F13.4°C 86% Calm Calm -- 30.09 in1019.0 mb 0.00 in0.0 mm 0.00 in0.0 mm 0.25 in6.4 mm
07:25 PM 60.1°F15.6°C 55.9°F13.3°C 86% Calm Calm -- 30.09 in1019.0 mb 0.00 in0.0 mm 0.00 in0.0 mm 0.25 in6.4 mm
07:30 PM 60.2°F15.7°C 56.0°F13.3°C 86% Calm Calm -- 30.09 in1019.0 mb 0.00 in0.0 mm 0.00 in0.0 mm 0.25 in6.4 mm
07:35 PM 60.0°F15.6°C 56.1°F13.4°C 87% Calm Calm -- 30.09 in1019.0 mb 0.00 in0.0 mm 0.00 in0.0 mm 0.25 in6.4 mm
07:40 PM 59.7°F15.4°C 55.8°F13.2°C 87% Calm Calm -- 30.09 in1019.0 mb 0.00 in0.0 mm 0.00 in0.0 mm 0.25 in6.4 mm
07:45 PM 59.4°F15.2°C 55.5°F13.1°C 87% Calm Calm -- 30.09 in1019.0 mb 0.00 in0.0 mm 0.00 in0.0 mm 0.25 in6.4 mm
07:50 PM 59.1°F15.1°C 55.2°F12.9°C 87% Calm Calm -- 30.09 in1019.0 mb 0.00 in0.0 mm 0.00 in0.0 mm 0.25 in6.4 mm
07:55 PM 59.0°F15.0°C 55.1°F12.8°C 87% Calm Calm -- 30.09 in1019.0 mb 0.00 in0.0 mm 0.00 in0.0 mm 0.25 in6.4 mm
08:00 PM 58.9°F14.9°C 55.4°F13.0°C 88% Calm Calm -- 30.10 in1019.3 mb 0.00 in0.0 mm 0.00 in0.0 mm 0.25 in6.4 mm
08:05 PM 58.7°F14.8°C 55.2°F12.9°C 88% Calm Calm -- 30.10 in1019.3 mb 0.00 in0.0 mm 0.00 in0.0 mm 0.25 in6.4 mm
08:10 PM 58.5°F14.7°C 55.0°F12.8°C 88% Calm Calm -- 30.10 in1019.3 mb 0.00 in0.0 mm 0.00 in0.0 mm 0.25 in6.4 mm
08:15 PM 58.2°F14.6°C 54.7°F12.6°C 88% Calm Calm -- 30.10 in1019.3 mb 0.00 in0.0 mm 0.00 in0.0 mm 0.25 in6.4 mm
08:20 PM 58.1°F14.5°C 54.6°F12.6°C 88% Calm Calm -- 30.10 in1019.3 mb 0.00 in0.0 mm 0.00 in0.0 mm 0.25 in6.4 mm
08:25 PM 58.0°F14.4°C 54.8°F12.7°C 89% Calm Calm -- 30.10 in1019.3 mb 0.00 in0.0 mm 0.00 in0.0 mm 0.25 in6.4 mm
08:30 PM 57.9°F14.4°C 54.7°F12.6°C 89% Calm Calm -- 30.10 in1019.3 mb 0.00 in0.0 mm 0.00 in0.0 mm 0.25 in6.4 mm
08:35 PM 57.8°F14.3°C 54.6°F12.6°C 89% Calm Calm -- 30.10 in1019.3 mb 0.00 in0.0 mm 0.00 in0.0 mm 0.25 in6.4 mm
08:40 PM 57.6°F14.2°C 54.4°F12.4°C 89% Calm Calm -- 30.10 in1019.3 mb 0.00 in0.0 mm 0.00 in0.0 mm 0.25 in6.4 mm
08:45 PM 57.4°F14.1°C 54.2°F12.3°C 89% Calm Calm -- 30.10 in1019.3 mb 0.00 in0.0 mm 0.00 in0.0 mm 0.25 in6.4 mm
08:50 PM 57.3°F14.1°C 54.1°F12.3°C 89% Calm Calm -- 30.10 in1019.3 mb 0.00 in0.0 mm 0.00 in0.0 mm 0.25 in6.4 mm
08:55 PM 57.2°F14.0°C 54.0°F12.2°C 89% Calm Calm -- 30.10 in1019.3 mb 0.00 in0.0 mm 0.00 in0.0 mm 0.25 in6.4 mm
09:00 PM 57.0°F13.9°C 53.8°F12.1°C 89% Calm Calm -- 30.10 in1019.3 mb 0.00 in0.0 mm 0.00 in0.0 mm 0.25 in6.4 mm
09:05 PM 56.8°F13.8°C 53.6°F12.0°C 89% Calm Calm -- 30.10 in1019.3 mb 0.00 in0.0 mm 0.00 in0.0 mm 0.25 in6.4 mm
09:10 PM 56.6°F13.7°C 53.4°F11.9°C 89% Calm Calm -- 30.10 in1019.3 mb 0.00 in0.0 mm 0.00 in0.0 mm 0.25 in6.4 mm
09:15 PM 56.5°F13.6°C 53.6°F12.0°C 90% Calm Calm -- 30.11 in1019.6 mb 0.00 in0.0 mm 0.00 in0.0 mm 0.25 in6.4 mm
09:20 PM 56.6°F13.7°C 53.7°F12.1°C 90% Calm Calm -- 30.11 in1019.6 mb 0.00 in0.0 mm 0.00 in0.0 mm 0.25 in6.4 mm
09:25 PM 56.5°F13.6°C 53.6°F12.0°C 90% Calm Calm -- 30.11 in1019.6 mb 0.00 in0.0 mm 0.00 in0.0 mm 0.25 in6.4 mm
09:30 PM 56.4°F13.6°C 53.5°F11.9°C 90% Calm Calm -- 30.11 in1019.6 mb 0.00 in0.0 mm 0.00 in0.0 mm 0.25 in6.4 mm
09:35 PM 56.2°F13.4°C 53.3°F11.8°C 90% Calm Calm -- 30.11 in1019.6 mb 0.00 in0.0 mm 0.00 in0.0 mm 0.25 in6.4 mm
09:40 PM 56.0°F13.3°C 53.1°F11.7°C 90% Calm Calm -- 30.11 in1019.6 mb 0.00 in0.0 mm 0.00 in0.0 mm 0.25 in6.4 mm
09:45 PM 55.9°F13.3°C 53.0°F11.7°C 90% Calm Calm -- 30.11 in1019.6 mb 0.00 in0.0 mm 0.00 in0.0 mm 0.25 in6.4 mm
09:50 PM 55.9°F13.3°C 53.0°F11.7°C 90% Calm Calm -- 30.11 in1019.6 mb 0.00 in0.0 mm 0.00 in0.0 mm 0.25 in6.4 mm
09:55 PM 55.7°F13.2°C 52.8°F11.6°C 90% Calm Calm -- 30.11 in1019.6 mb 0.00 in0.0 mm 0.00 in0.0 mm 0.25 in6.4 mm
10:00 PM 55.6°F13.1°C 52.7°F11.5°C 90% Calm Calm -- 30.12 in1020.0 mb 0.00 in0.0 mm 0.00 in0.0 mm 0.25 in6.4 mm
10:05 PM 55.6°F13.1°C 52.7°F11.5°C 90% Calm Calm -- 30.12 in1020.0 mb 0.00 in0.0 mm 0.00 in0.0 mm 0.25 in6.4 mm
10:10 PM 55.5°F13.1°C 52.6°F11.4°C 90% Calm Calm -- 30.12 in1020.0 mb 0.00 in0.0 mm 0.00 in0.0 mm 0.25 in6.4 mm
10:15 PM 55.3°F12.9°C 52.4°F11.3°C 90% Calm Calm -- 30.12 in1020.0 mb 0.00 in0.0 mm 0.00 in0.0 mm 0.25 in6.4 mm
10:20 PM 55.2°F12.9°C 52.6°F11.4°C 91% Calm Calm -- 30.12 in1020.0 mb 0.00 in0.0 mm 0.00 in0.0 mm 0.25 in6.4 mm
10:25 PM 55.2°F12.9°C 52.6°F11.4°C 91% Calm Calm -- 30.12 in1020.0 mb 0.00 in0.0 mm 0.00 in0.0 mm 0.25 in6.4 mm
10:30 PM 55.1°F12.8°C 52.5°F11.4°C 91% Calm Calm -- 30.12 in1020.0 mb 0.00 in0.0 mm 0.00 in0.0 mm 0.25 in6.4 mm
10:35 PM 54.9°F12.7°C 52.0°F11.1°C 90% Calm Calm -- 30.12 in1020.0 mb 0.00 in0.0 mm 0.00 in0.0 mm 0.25 in6.4 mm
10:40 PM 54.8°F12.7°C 52.2°F11.2°C 91% Calm Calm -- 30.12 in1020.0 mb 0.00 in0.0 mm 0.00 in0.0 mm 0.25 in6.4 mm
10:45 PM 54.8°F12.7°C 52.2°F11.2°C 91% Calm Calm -- 30.13 in1020.3 mb 0.00 in0.0 mm 0.00 in0.0 mm 0.25 in6.4 mm
10:50 PM 55.0°F12.8°C 52.4°F11.3°C 91% Calm Calm -- 30.13 in1020.3 mb 0.00 in0.0 mm 0.00 in0.0 mm 0.25 in6.4 mm
10:55 PM 55.0°F12.8°C 52.4°F11.3°C 91% Calm Calm -- 30.13 in1020.3 mb 0.00 in0.0 mm 0.00 in0.0 mm 0.25 in6.4 mm
11:00 PM 54.9°F12.7°C 52.3°F11.3°C 91% Calm Calm -- 30.12 in1020.0 mb 0.00 in0.0 mm 0.00 in0.0 mm 0.25 in6.4 mm
11:05 PM 54.8°F12.7°C 52.2°F11.2°C 91% Calm Calm -- 30.12 in1020.0 mb 0.00 in0.0 mm 0.00 in0.0 mm 0.25 in6.4 mm
11:10 PM 54.5°F12.5°C 51.9°F11.1°C 91% Calm Calm -- 30.12 in1020.0 mb 0.00 in0.0 mm 0.00 in0.0 mm 0.25 in6.4 mm
11:15 PM 54.4°F12.4°C 51.8°F11.0°C 91% Calm Calm -- 30.13 in1020.3 mb 0.00 in0.0 mm 0.00 in0.0 mm 0.25 in6.4 mm
11:20 PM 54.2°F12.3°C 51.6°F10.9°C 91% Calm Calm -- 30.13 in1020.3 mb 0.00 in0.0 mm 0.00 in0.0 mm 0.25 in6.4 mm
11:25 PM 54.2°F12.3°C 51.6°F10.9°C 91% Calm Calm -- 30.13 in1020.3 mb 0.00 in0.0 mm 0.00 in0.0 mm 0.25 in6.4 mm
11:30 PM 54.1°F12.3°C 51.5°F10.8°C 91% Calm Calm -- 30.13 in1020.3 mb 0.00 in0.0 mm 0.00 in0.0 mm 0.25 in6.4 mm
11:35 PM 54.0°F12.2°C 51.4°F10.8°C 91% Calm Calm -- 30.13 in1020.3 mb 0.00 in0.0 mm 0.00 in0.0 mm 0.25 in6.4 mm
11:40 PM 54.0°F12.2°C 51.4°F10.8°C 91% Calm Calm -- 30.13 in1020.3 mb 0.00 in0.0 mm 0.00 in0.0 mm 0.25 in6.4 mm
11:45 PM 53.9°F12.2°C 51.3°F10.7°C 91% Calm Calm -- 30.13 in1020.3 mb 0.00 in0.0 mm 0.00 in0.0 mm 0.25 in6.4 mm
11:50 PM 53.8°F12.1°C 51.2°F10.7°C 91% Calm Calm -- 30.13 in1020.3 mb 0.00 in0.0 mm 0.00 in0.0 mm 0.25 in6.4 mm
11:55 PM 53.8°F12.1°C 51.2°F10.7°C 91% Calm Calm -- 30.13 in1020.3 mb 0.00 in0.0 mm 0.00 in0.0 mm 0.25 in6.4 mm